• Join FlightAware (Why Join?)
  • Login
  • US Flag 
05:23PM EDT


 

Airport Tracker/Info


-or-


 

Live Flight TrackerFlight Track Log ✈ AWI3757 ✈ 07-May-2013 ✈ CYOW - KCLT

Flight Track Log - Related Links

Times and Time Zones

All times are in EDT time to prevent confusion due to time zone crossing. See the AWI3757 flight status page for this flight to view local times or setup timezone preferences in your user account.

Time Position Orientation Groundspeed Altitude Reporting Facility
EDT Latitude Longitude Course Direction KTS MPH feet Rate Location/Type
07:28AM 45.2667 -75.7000 197° South 190 219 2,400  Level Montreal Center
07:29AM 44.9846 -75.7332 186° South  Level FlightAware Approximate
07:29AM 45.2167 -75.7500 215° Southwest 240 276 4,000  Level Montreal Center
07:30AM 44.8784 -75.7831 197° South  Level FlightAware Approximate
07:30AM 45.1500 -75.8000 208° Southwest 270 311 6,300  Level Montreal Center
07:31AM 44.7709 -75.8264 193° South  Level FlightAware Approximate
07:31AM 45.0667 -75.8333 196° South 280 322 8,400  Level Montreal Center
07:32AM 44.6634 -75.8705 197° South  Level FlightAware Approximate
07:32AM 45.0000 -75.8500 190° South 280 322 10,800  Level Montreal Center
07:33AM 44.5562 -75.9155 197° South  Level FlightAware Approximate
07:33AM 44.9167 -75.8667 188° South 300 345 12,700  Level Montreal Center
07:34AM 44.8333 -75.9000 196° South 310 357 15,000 2,040 Climbing Montreal Center
07:35AM 44.7500 -75.9167 188° South 320 368 16,800 1,620 Climbing Montreal Center
07:36AM 44.6500 -75.9167 180° South 330 380 18,300 1,500 Climbing Montreal Center
07:37AM 44.5667 -75.9500 196° South 340 391 19,800 1,500 Climbing Montreal Center
07:38AM 44.4667 -75.9667 187° South 340 391 21,300 1,320 Climbing Montreal Center
07:39AM 44.3667 -76.0000 193° South 350 403 22,500 1,020 Climbing Montreal Center
07:39AM 44.3231 -75.9953 176° South 365 420 23,000 900 Climbing Boston Center
07:40AM 44.2225 -76.0153 188° South 370 426 24,000 960 Climbing Boston Center
07:41AM 44.1197 -76.0381 189° South 370 426 25,000 900 Climbing Boston Center
07:42AM 44.0128 -76.0547 186° South 375 432 25,900 840 Climbing Boston Center
07:43AM 43.9058 -76.0742 187° South 380 437 26,700 780 Climbing Boston Center
07:44AM 43.7969 -76.0936 187° South 390 449 27,500 780 Climbing Boston Center
07:45AM 43.6961 -76.1133 188° South 402 463 28,300 780 Climbing Boston Center
07:46AM 43.5869 -76.1325 187° South 402 463 29,100 780 Climbing Boston Center
07:47AM 43.4781 -76.1517 187° South 402 463 29,900 600 Climbing Boston Center
07:48AM 43.3647 -76.1733 188° South 408 470 30,400 540 Climbing Boston Center
07:49AM 43.2558 -76.1922 187° South 408 470 31,000 600 Climbing Boston Center
07:50AM 43.1464 -76.2225 191° South 408 470 31,700 660 Climbing Boston Center
07:52AM 42.9367 -76.3942 211° Southwest 403 464 33,200 660 Climbing Cleveland Center
07:53AM 42.8436 -76.4711 211° Southwest 398 458 33,800 360 Climbing Cleveland Center
07:54AM 42.7483 -76.5481 211° Southwest 393 452 34,000 60 Climbing Cleveland Center
07:56AM 42.5539 -76.7036 211° Southwest 392 451 34,000  Level New York Center
07:57AM 42.4539 -76.7844 211° Southwest 413 475 34,000  Level New York Center
07:58AM 42.3500 -76.8675 211° Southwest 413 475 34,000  Level New York Center
07:59AM 42.2500 -76.9478 211° Southwest 413 475 34,000  Level New York Center
08:00AM 42.1522 -77.0256 211° Southwest 413 475 34,000  Level New York Center
08:01AM 42.0544 -77.1028 210° Southwest 418 481 34,000  Level New York Center
08:02AM 41.9564 -77.1828 211° Southwest 418 481 34,000  Level New York Center
08:03AM 41.8586 -77.2597 210° Southwest 418 481 34,000  Level New York Center
08:04AM 41.7583 -77.3389 211° Southwest 418 481 34,000  Level New York Center
08:05AM 41.6647 -77.4131 211° Southwest 418 481 34,000  Level New York Center
08:06AM 41.5664 -77.4947 212° Southwest 413 475 34,000  Level New York Center
08:07AM 41.4686 -77.5681 209° Southwest 413 475 34,000  Level New York Center
08:10AM 41.2247 -77.7561 210° Southwest 426 490 34,000  Level Cleveland Center
08:11AM 41.1264 -77.8292 209° Southwest 415 478 34,000  Level Cleveland Center
08:12AM 41.0281 -77.9078 211° Southwest 415 478 34,000  Level Cleveland Center
08:13AM 40.9319 -77.9858 212° Southwest 415 478 34,000  Level Cleveland Center
08:14AM 40.8672 -78.0708 225° Southwest 415 478 34,000  Level Cleveland Center
08:15AM 40.7844 -78.1944 229° Southwest 408 470 34,000  Level Cleveland Center
08:16AM 40.7075 -78.3150 230° Southwest 419 482 34,000  Level Cleveland Center
08:17AM 40.6328 -78.4325 230° Southwest 424 488 34,000  Level Cleveland Center
08:18AM 40.5578 -78.5497 230° Southwest 430 495 34,000  Level Cleveland Center
08:19AM 40.4806 -78.6669 229° Southwest 430 495 34,000  Level Cleveland Center
08:20AM 40.4033 -78.7864 230° Southwest 430 495 34,000  Level Cleveland Center
08:21AM 40.3258 -78.9028 229° Southwest 430 495 34,000  Level Cleveland Center
08:22AM 40.2503 -79.0189 230° Southwest 430 495 34,000  Level Cleveland Center
08:23AM 40.1728 -79.1375 229° Southwest 430 495 34,000  Level Cleveland Center
08:24AM 40.0947 -79.2533 229° Southwest 430 495 34,000  Level Cleveland Center
08:25AM 40.0189 -79.3686 229° Southwest 430 495 34,000  Level Cleveland Center
08:26AM 39.9431 -79.4836 229° Southwest 430 495 34,000  Level Cleveland Center
08:27AM 39.8669 -79.5986 229° Southwest 430 495 34,000  Level Cleveland Center
08:28AM 39.7886 -79.7131 228° Southwest 430 495 34,000  Level Cleveland Center
08:29AM 39.7103 -79.8247 228° Southwest 430 495 34,000  Level Cleveland Center
08:30AM 39.6358 -79.9389 230° Southwest 430 495 34,000  Level Cleveland Center
08:32AM 39.4872 -80.1528 228° Southwest 418 481 34,000  Level Indianapolis Center
08:33AM 39.4067 -80.2625 226° Southwest 421 484 34,000  Level Indianapolis Center
08:34AM 39.3303 -80.3739 228° Southwest 415 478 34,000  Level Indianapolis Center
08:35AM 39.2514 -80.4842 227° Southwest 416 479 34,000  Level Indianapolis Center
08:36AM 39.1736 -80.5925 227° Southwest 413 475 34,000  Level Indianapolis Center
08:37AM 39.0944 -80.7031 227° Southwest 418 481 34,000  Level Indianapolis Center
08:38AM 39.0147 -80.8117 227° Southwest 416 479 34,000  Level Indianapolis Center
08:40AM 38.8600 -81.0369 229° Southwest 420 483 34,000  Level Indianapolis Center
08:41AM 38.7661 -81.1733 229° Southwest 423 487 34,000  Level Indianapolis Center
08:42AM 38.6867 -81.2883 229° Southwest 426 490 34,000  Level Indianapolis Center
08:43AM 38.6050 -81.4036 228° Southwest 427 491 34,000  Level Indianapolis Center
08:44AM 38.5242 -81.5208 229° Southwest 429 494 34,000  Level Indianapolis Center
08:45AM 38.4436 -81.6364 228° Southwest 428 493 34,000  Level Indianapolis Center
08:46AM 38.3578 -81.7414 224° Southwest 424 488 34,000  Level Indianapolis Center
08:47AM 38.2506 -81.7906 200° South 411 473 34,000  Level Indianapolis Center
08:48AM 38.1389 -81.8114 188° South 405 466 34,000  Level Indianapolis Center
08:49AM 38.0264 -81.8322 188° South 407 468 34,000 -60 Level Indianapolis Center
08:50AM 37.9131 -81.8542 189° South 410 472 33,900 -660 Descending Indianapolis Center
08:51AM 37.7925 -81.8778 189° South 411 473 32,700 -1,200 Descending Indianapolis Center
08:52AM 37.6786 -81.8992 188° South 411 473 31,500 -1,260 Descending Indianapolis Center
08:53AM 37.5458 -81.9244 189° South 412 474 30,100 -1,320 Descending Indianapolis Center
08:54AM 37.4328 -81.9450 188° South 410 472 28,800 -1,080 Descending Indianapolis Center
08:55AM 37.3206 -81.9653 188° South 407 468 28,000 -420 Descending Indianapolis Center
08:56AM 37.2117 -81.9869 189° South 397 457 28,000  Level Indianapolis Center
08:57AM 37.1003 -82.0072 188° South 399 459 28,000  Level Indianapolis Center
08:58AM 36.9958 -81.9817 169° South 377 434 28,000 -60 Level Indianapolis Center
08:59AM 36.8925 -81.9511 167° South 379 436 27,900 -600 Descending Indianapolis Center
09:00AM 36.7886 -81.9219 167° South 379 436 26,800 -1,320 Descending Indianapolis Center
09:01AM 36.6644 -81.8864 167° South 387 445 25,200 -1,380 Descending Indianapolis Center
09:02AM 36.5536 -81.8550 167° South 401 461 24,000 -600 Descending Indianapolis Center
09:04AM 36.4461 -81.8239 167° South 397 457 24,000 -60 Level Indianapolis Center
09:04AM 36.3422 -81.7964 168° South 390 449 23,900 -1,080 Descending Atlanta Center
09:05AM 36.2375 -81.7658 167° South 395 455 21,900 -1,980 Descending Atlanta Center
09:06AM 36.1369 -81.7378 167° South 390 449 20,000 -1,920 Descending Atlanta Center
09:07AM 36.0361 -81.7097 167° South 370 426 18,100 -1,920 Descending Atlanta Center
09:08AM 35.9375 -81.6817 167° South 370 426 16,200 -1,860 Descending Atlanta Center
09:09AM 35.8411 -81.6564 168° South 360 414 14,400 -2,640 Descending Atlanta Center
09:10AM 35.7467 -81.6311 168° South 355 409 11,000 -1,680 Descending Atlanta Center
09:11AM 35.6964 -81.6094 161° South 338 389 11,800 60 Climbing Atlanta Center
09:11AM 35.6603 -81.5850 151° Southeast 345 397 11,100 -720 Descending Atlanta Center
09:12AM 35.6075 -81.5483 151° Southeast 329 379 11,000 -120 Descending Atlanta Center
09:12AM 35.5819 -81.5311 151° Southeast 331 381 11,000  Level Atlanta Center
09:13AM 35.5328 -81.4739 137° Southeast 329 379 11,000 -120 Level Atlanta Center
09:13AM 35.5197 -81.4489 123° Southeast 321 369 10,900 -840 Descending Atlanta Center
09:14AM 35.5078 -81.3778 102° East 285 328 10,200 -840 Descending Atlanta Center
09:14AM 35.5053 -81.3525 97° East 297 342 10,100 -1,260 Descending Atlanta Center
09:15AM 35.4864 -81.2561 104° East 285 328 8,600 -1,440 Descending Atlanta Center
09:16AM 35.4739 -81.1647 100° East 282 325 7,400 -1,020 Descending Atlanta Center
09:17AM 35.4639 -81.0936 100° East 278 320 6,900 -780 Descending Atlanta Center
09:17AM 35.4592 -81.0683 103° East 285 328 6,600 -1,200 Descending Atlanta Center
09:18AM 35.4178 -81.0036 128° Southeast 255 293 5,400 -1,200 Descending Atlanta Center